Time;durP1;ratioP1;P1;durP2;ratioP2;P2;SDS_P1;SDS_P2;PMS_P1;PMS_P2;Temp;Humidity;BMP_temperature;BMP_pressure;BME280_temperature;BME280_humidity;BME280_pressure;Samples;Min_cycle;Max_cycle;Signal;HPM_P1;HPM_P2
2022/07/02 00:01:09;;;;;;;;;;;;;;;26.33;48.32;99956.19;4416017;32;19977;-80
2022/07/02 00:03:37;;;;;;;;;;;;;;;26.80;47.14;99966.38;4431455;32;20027;-80
2022/07/02 00:06:05;;;;;;;;;;;;;;;26.75;47.33;99968.38;4416877;32;19978;-80
2022/07/02 00:08:32;;;;;;;;;;;;;;;26.40;48.38;99973.53;4413339;32;20064;-80
2022/07/02 00:10:59;;;;;;;;;;;;;;;26.64;47.70;99981.31;4422234;32;19982;-79
2022/07/02 00:13:27;;;;;;;;;;;;;;;26.44;48.50;99969.81;4414418;32;20069;-79
2022/07/02 00:15:54;;;;;;;;;;;;;;;26.56;47.91;99971.06;4421303;32;19974;-80
2022/07/02 00:18:21;;;;;;;;;;;;;;;26.70;47.57;99969.53;4417716;32;19974;-80
2022/07/02 00:20:48;;;;;;;;;;;;;;;26.84;47.10;99964.41;4418612;32;19997;-80
2022/07/02 00:23:14;;;;;;;;;;;;;;;26.66;47.88;99947.56;4421189;32;19974;-80
2022/07/02 00:25:43;;;;;;;;;;;;;;;26.47;48.33;99946.72;4416850;32;19989;-80
2022/07/02 00:28:14;;;;;;;;;;;;;;;26.50;47.93;99946.59;4416748;32;20012;-80
2022/07/02 00:30:41;;;;;;;;;;;;;;;26.52;48.24;99952.72;4413882;32;20029;-80
2022/07/02 00:33:09;;;;;;;;;;;;;;;26.44;48.27;99958.34;4408885;32;19974;-80
2022/07/02 00:35:36;;;;;;;;;;;;;;;26.60;47.41;99969.97;4421598;32;20007;-80
2022/07/02 00:38:02;;;;;;;;;;;;;;;26.56;47.79;99975.50;4415389;32;20030;-80
2022/07/02 00:40:30;;;;;;;;;;;;;;;26.71;47.28;99982.75;4415032;32;19986;-80
2022/07/02 00:42:57;;;;;;;;;;;;;;;26.86;47.01;99971.34;4420324;32;19973;-80
2022/07/02 00:45:24;;;;;;;;;;;;;;;26.83;47.24;99976.81;4415476;32;19994;-80
2022/07/02 00:47:55;;;;;;;;;;;;;;;26.68;47.28;99972.28;4425490;32;19993;-80
2022/07/02 00:50:23;;;;;;;;;;;;;;;27.00;46.34;99965.38;4416885;32;20004;-80
2022/07/02 00:52:50;;;;;;;;;;;;;;;26.66;47.29;99979.44;4416742;32;20319;-80
2022/07/02 00:55:17;;;;;;;;;;;;;;;26.49;47.65;99976.75;4416549;32;19994;-80
2022/07/02 00:57:45;;;;;;;;;;;;;;;26.69;47.04;99975.78;4416862;32;19989;-80
2022/07/02 01:00:15;;;;;;;;;;;;;;;26.56;47.03;99957.78;4416632;32;20001;-80
2022/07/02 01:02:44;;;;;;;;;;;;;;;26.37;47.49;99957.75;4420151;32;19974;-79
2022/07/02 01:05:14;;;;;;;;;;;;;;;26.47;47.25;99962.63;4423026;32;20018;-80
2022/07/02 01:07:46;;;;;;;;;;;;;;;26.32;47.65;99972.19;4427013;32;19992;-79
2022/07/02 01:10:18;;;;;;;;;;;;;;;26.35;47.57;99980.84;4423109;32;19978;-80
2022/07/02 01:12:46;;;;;;;;;;;;;;;26.15;47.88;99988.88;4427786;32;19989;-80
2022/07/02 01:15:13;;;;;;;;;;;;;;;25.94;48.24;99986.28;4411421;32;20001;-80
2022/07/02 01:17:40;;;;;;;;;;;;;;;26.19;47.53;99979.84;4399640;32;20012;-80
2022/07/02 01:20:08;;;;;;;;;;;;;;;26.08;47.89;99976.84;4401358;32;20022;-79
2022/07/02 01:22:36;;;;;;;;;;;;;;;26.08;47.46;99971.53;4407872;32;19970;-80
2022/07/02 01:25:03;;;;;;;;;;;;;;;25.86;47.93;99975.16;4402797;32;20065;-79
2022/07/02 01:27:29;;;;;;;;;;;;;;;25.95;47.51;99985.34;4401050;32;19994;-80
2022/07/02 01:29:57;;;;;;;;;;;;;;;25.70;48.06;100003.25;4396599;32;19970;-80
2022/07/02 01:32:24;;;;;;;;;;;;;;;25.63;48.28;100015.06;4418228;32;19975;-80
2022/07/02 01:34:52;;;;;;;;;;;;;;;25.90;47.30;100021.81;4384905;32;19978;-79
2022/07/02 01:37:20;;;;;;;;;;;;;;;25.68;47.33;100026.31;4387948;32;20334;-79
2022/07/02 01:39:47;;;;;;;;;;;;;;;25.28;47.93;100033.31;4398802;32;20002;-79
2022/07/02 01:42:14;;;;;;;;;;;;;;;25.28;47.34;100039.47;4386541;32;19982;-79
2022/07/02 01:44:41;;;;;;;;;;;;;;;24.73;48.92;100048.72;4397279;32;20005;-79
2022/07/02 01:47:10;;;;;;;;;;;;;;;24.72;48.49;100039.91;4397077;32;20650;-82
2022/07/02 01:49:37;;;;;;;;;;;;;;;24.28;50.00;100028.34;4385156;32;20002;-80
2022/07/02 01:52:05;;;;;;;;;;;;;;;24.61;49.11;100020.09;4385621;32;20087;-79
2022/07/02 01:54:32;;;;;;;;;;;;;;;24.47;49.56;100034.69;4402066;32;20002;-79
2022/07/02 01:56:59;;;;;;;;;;;;;;;24.67;48.59;100030.47;4398055;32;20210;-80
2022/07/02 01:59:26;;;;;;;;;;;;;;;24.59;48.26;100007.78;4403441;32;19987;-79
2022/07/02 02:01:53;;;;;;;;;;;;;;;24.13;49.43;99998.91;4400430;32;19982;-81
2022/07/02 02:04:20;;;;;;;;;;;;;;;23.88;50.08;99982.22;4386405;32;19979;-80
2022/07/02 02:06:47;;;;;;;;;;;;;;;23.71;50.55;99958.16;4403101;32;19982;-79
2022/07/02 02:09:14;;;;;;;;;;;;;;;23.86;50.09;99932.03;4400776;32;20049;-80
2022/07/02 02:11:41;;;;;;;;;;;;;;;23.97;49.81;99899.91;4409221;32;19977;-79
2022/07/02 02:14:08;;;;;;;;;;;;;;;24.07;49.75;99893.34;4413293;32;19973;-80
2022/07/02 02:16:35;;;;;;;;;;;;;;;23.91;50.30;99892.22;4420388;32;19992;-80
2022/07/02 02:19:03;;;;;;;;;;;;;;;23.75;50.95;99896.38;4415949;32;20048;-80
2022/07/02 02:21:30;;;;;;;;;;;;;;;23.48;51.85;99914.91;4429536;32;19974;-80
2022/07/02 02:23:57;;;;;;;;;;;;;;;23.49;52.23;99927.22;4426151;32;20005;-79
2022/07/02 02:26:25;;;;;;;;;;;;;;;23.69;51.49;99923.00;4420951;32;20008;-80
2022/07/02 02:28:52;;;;;;;;;;;;;;;23.62;51.40;99891.50;4423396;32;20037;-79
2022/07/02 02:31:19;;;;;;;;;;;;;;;23.62;51.64;99875.62;4416843;32;19970;-80
2022/07/02 02:33:46;;;;;;;;;;;;;;;23.57;51.97;99882.84;4415693;32;20035;-79
2022/07/02 02:36:13;;;;;;;;;;;;;;;23.41;52.36;99886.97;4421893;32;19993;-80
2022/07/02 02:38:40;;;;;;;;;;;;;;;23.20;52.96;99905.31;4422857;32;20331;-82
2022/07/02 02:41:07;;;;;;;;;;;;;;;23.30;52.83;99910.28;4428340;32;19993;-79
2022/07/02 02:43:34;;;;;;;;;;;;;;;23.26;52.78;99940.34;4415825;32;20331;-82
2022/07/02 02:46:01;;;;;;;;;;;;;;;23.38;52.44;99950.50;4416900;32;20049;-79
2022/07/02 02:48:28;;;;;;;;;;;;;;;23.27;52.64;99963.22;4416955;32;20027;-80
2022/07/02 02:50:56;;;;;;;;;;;;;;;22.97;53.40;99963.31;4418081;32;19981;-79
2022/07/02 02:53:24;;;;;;;;;;;;;;;22.97;53.48;99976.50;4430957;32;19986;-81
2022/07/02 02:55:50;;;;;;;;;;;;;;;23.17;52.77;99968.81;4437027;32;20004;-80
2022/07/02 02:58:18;;;;;;;;;;;;;;;22.82;53.70;99977.00;4420855;32;20028;-82
2022/07/02 03:00:45;;;;;;;;;;;;;;;22.78;53.94;99970.06;4415708;32;20393;-80
2022/07/02 03:03:11;;;;;;;;;;;;;;;22.75;54.09;99982.47;4415360;32;19989;-79
2022/07/02 03:05:39;;;;;;;;;;;;;;;23.13;52.75;99985.69;4432712;32;20365;-80
2022/07/02 03:08:05;;;;;;;;;;;;;;;22.96;53.28;100001.19;4417737;32;19996;-79
2022/07/02 03:10:32;;;;;;;;;;;;;;;22.50;54.64;99997.34;4417282;32;20721;-79
2022/07/02 03:12:59;;;;;;;;;;;;;;;22.63;54.45;99993.41;4417539;32;20000;-79
2022/07/02 03:15:26;;;;;;;;;;;;;;;22.83;53.75;99999.84;4383546;32;19986;-79
2022/07/02 03:17:53;;;;;;;;;;;;;;;22.73;54.01;100005.41;4407256;32;20017;-83
2022/07/02 03:20:20;;;;;;;;;;;;;;;22.99;53.21;100011.66;4402521;32;20813;-79
2022/07/02 03:22:47;;;;;;;;;;;;;;;22.50;54.76;100005.25;4401958;32;20008;-80
2022/07/02 03:25:14;;;;;;;;;;;;;;;22.70;54.11;100016.06;4398852;32;20001;-79
2022/07/02 03:27:41;;;;;;;;;;;;;;;22.64;54.21;100010.97;4405989;32;19978;-82
2022/07/02 03:30:08;;;;;;;;;;;;;;;22.55;54.61;100019.16;4401869;32;20714;-79
2022/07/02 03:32:35;;;;;;;;;;;;;;;22.57;54.72;100019.97;4403325;32;19978;-80
2022/07/02 03:35:02;;;;;;;;;;;;;;;22.54;54.92;100030.63;4402320;32;19974;-81
2022/07/02 03:37:29;;;;;;;;;;;;;;;22.47;55.21;100039.63;4401783;32;19997;-80
2022/07/02 03:39:55;;;;;;;;;;;;;;;22.49;55.21;100043.06;4401891;32;20072;-81
2022/07/02 03:42:23;;;;;;;;;;;;;;;22.59;55.02;100052.47;4401857;32;20037;-80
2022/07/02 03:44:50;;;;;;;;;;;;;;;22.78;54.40;100059.81;4401575;32;20329;-81
2022/07/02 03:47:16;;;;;;;;;;;;;;;22.66;54.54;100051.38;4397023;32;19986;-80
2022/07/02 03:49:44;;;;;;;;;;;;;;;22.61;54.74;100048.00;4405838;32;19970;-80
2022/07/02 03:52:10;;;;;;;;;;;;;;;22.54;54.98;100071.97;4412213;32;19978;-81
2022/07/02 03:54:37;;;;;;;;;;;;;;;22.69;54.51;100072.38;4411768;32;19970;-80
2022/07/02 03:57:05;;;;;;;;;;;;;;;22.66;54.78;100085.69;4406895;32;20020;-82
2022/07/02 03:59:32;;;;;;;;;;;;;;;22.53;55.02;100092.22;4415325;32;20001;-80
2022/07/02 04:01:58;;;;;;;;;;;;;;;22.51;55.15;100094.03;4417114;32;20344;-80
2022/07/02 04:04:26;;;;;;;;;;;;;;;22.61;54.67;100100.75;4396503;32;19985;-80
2022/07/02 04:06:52;;;;;;;;;;;;;;;22.58;54.59;100100.00;4407038;32;20019;-79
2022/07/02 04:09:19;;;;;;;;;;;;;;;22.63;54.79;100104.22;4416881;32;20048;-79
2022/07/02 04:11:46;;;;;;;;;;;;;;;22.75;54.17;100101.25;4428428;32;20880;-80
2022/07/02 04:14:13;;;;;;;;;;;;;;;22.45;55.35;100100.34;4416633;32;20013;-83
2022/07/02 04:16:40;;;;;;;;;;;;;;;22.29;55.92;100115.72;4414467;32;20057;-80
2022/07/02 04:19:07;;;;;;;;;;;;;;;22.64;55.07;100116.50;4420507;32;19982;-80
2022/07/02 04:21:40;;;;;;;;;;;;;;;22.71;54.64;100118.06;4412228;32;19990;-82
2022/07/02 04:24:07;;;;;;;;;;;;;;;22.48;55.35;100108.16;4434354;32;19986;-81
2022/07/02 04:26:34;;;;;;;;;;;;;;;22.86;54.22;100122.03;4414136;32;20005;-80
2022/07/02 04:29:01;;;;;;;;;;;;;;;22.80;54.37;100121.34;4420812;32;20403;-80
2022/07/02 04:31:29;;;;;;;;;;;;;;;22.87;54.23;100117.59;4412410;32;19987;-82
2022/07/02 04:33:56;;;;;;;;;;;;;;;22.77;54.56;100116.16;4430595;32;20012;-82
2022/07/02 04:36:23;;;;;;;;;;;;;;;23.01;53.75;100112.81;4421867;32;19990;-81
2022/07/02 04:38:50;;;;;;;;;;;;;;;22.72;54.48;100113.66;4410324;32;20315;-79
2022/07/02 04:41:17;;;;;;;;;;;;;;;22.87;54.08;100126.38;4422826;32;19985;-80
2022/07/02 04:43:44;;;;;;;;;;;;;;;23.13;53.48;100130.03;4416594;32;20038;-80
2022/07/02 04:46:11;;;;;;;;;;;;;;;22.91;54.00;100132.44;4414135;32;20357;-79
2022/07/02 04:48:38;;;;;;;;;;;;;;;23.10;53.51;100131.03;4421928;32;19992;-79
2022/07/02 04:51:04;;;;;;;;;;;;;;;22.97;54.00;100129.63;4413137;32;19994;-79
2022/07/02 04:53:31;;;;;;;;;;;;;;;22.92;54.07;100136.81;4376445;32;20046;-80
2022/07/02 04:55:58;;;;;;;;;;;;;;;23.05;53.54;100142.63;4371100;32;19983;-82
2022/07/02 04:58:25;;;;;;;;;;;;;;;22.77;54.77;100142.53;4394814;32;20047;-79
2022/07/02 05:00:52;;;;;;;;;;;;;;;22.93;54.29;100151.75;4368628;32;19984;-80
2022/07/02 05:03:19;;;;;;;;;;;;;;;23.04;53.83;100152.34;4376202;32;19994;-80
2022/07/02 05:05:46;;;;;;;;;;;;;;;23.09;54.09;100155.69;4391354;32;20726;-79
2022/07/02 05:08:14;;;;;;;;;;;;;;;23.35;53.28;100151.38;4398819;32;20025;-80
2022/07/02 05:10:41;;;;;;;;;;;;;;;23.25;53.56;100166.63;4393452;32;19996;-80
2022/07/02 05:13:08;;;;;;;;;;;;;;;23.05;53.95;100151.41;4401385;32;20067;-79
2022/07/02 05:15:42;;;;;;;;;;;;;;;23.00;54.17;100174.44;4397657;32;19993;-81
2022/07/02 05:18:08;;;;;;;;;;;;;;;23.30;53.24;100164.75;4406009;32;20076;-80
2022/07/02 05:20:36;;;;;;;;;;;;;;;23.26;53.89;100183.34;4389014;32;20020;-79
2022/07/02 05:23:03;;;;;;;;;;;;;;;23.41;53.33;100182.87;4416762;32;20007;-79
2022/07/02 05:25:30;;;;;;;;;;;;;;;23.43;53.24;100187.22;4415416;32;19997;-79
2022/07/02 05:27:57;;;;;;;;;;;;;;;23.56;52.82;100187.69;4406254;32;19988;-79
2022/07/02 05:30:25;;;;;;;;;;;;;;;23.56;52.49;100192.13;4400924;32;19994;-79
2022/07/02 05:32:52;;;;;;;;;;;;;;;23.47;53.00;100203.84;4400768;32;19986;-79
2022/07/02 05:35:20;;;;;;;;;;;;;;;23.67;52.76;100201.44;4402438;32;19986;-79
2022/07/02 05:37:48;;;;;;;;;;;;;;;23.92;51.89;100216.53;4408052;32;20510;-80
2022/07/02 05:40:15;;;;;;;;;;;;;;;23.89;51.73;100219.25;4417485;32;20046;-80
2022/07/02 05:42:41;;;;;;;;;;;;;;;24.08;51.05;100230.97;4397795;32;19997;-80
2022/07/02 05:45:10;;;;;;;;;;;;;;;23.86;51.37;100227.28;4395135;32;19978;-79
2022/07/02 05:47:37;;;;;;;;;;;;;;;23.79;51.80;100241.63;4404275;32;20005;-79
2022/07/02 05:50:04;;;;;;;;;;;;;;;23.92;51.41;100257.97;4399138;32;19986;-80
2022/07/02 05:52:31;;;;;;;;;;;;;;;23.72;52.15;100256.81;4399216;32;19978;-80
2022/07/02 05:54:58;;;;;;;;;;;;;;;23.52;53.03;100260.06;4399889;32;20024;-79
2022/07/02 05:57:26;;;;;;;;;;;;;;;23.54;53.03;100252.94;4398958;32;20348;-80
2022/07/02 05:59:53;;;;;;;;;;;;;;;23.82;52.32;100257.41;4400043;32;20373;-77
2022/07/02 06:02:20;;;;;;;;;;;;;;;23.78;52.75;100245.19;4403144;32;19986;-78
2022/07/02 06:04:47;;;;;;;;;;;;;;;24.26;50.90;100241.84;4399892;32;19986;-78
2022/07/02 06:10:00;;;;;;;;;;;;;;;24.08;51.47;100228.31;4395514;32;20041;-78
2022/07/02 06:12:26;;;;;;;;;;;;;;;24.12;51.00;100224.69;4404162;32;19990;-77
2022/07/02 06:14:53;;;;;;;;;;;;;;;24.19;51.12;100229.75;4407576;32;19997;-78
2022/07/02 06:17:20;;;;;;;;;;;;;;;24.20;51.31;100239.41;4402684;32;19982;-77
2022/07/02 06:19:48;;;;;;;;;;;;;;;24.29;50.82;100252.34;4397848;32;20008;-78
2022/07/02 06:22:15;;;;;;;;;;;;;;;24.43;50.35;100244.81;4384968;32;19986;-78
2022/07/02 06:24:42;;;;;;;;;;;;;;;24.78;50.10;100245.34;4407113;32;20358;-78
2022/07/02 06:27:09;;;;;;;;;;;;;;;24.98;49.27;100253.47;4400521;32;19986;-78
2022/07/02 06:29:36;;;;;;;;;;;;;;;25.43;47.60;100252.69;4399710;32;20037;-78
2022/07/02 06:32:04;;;;;;;;;;;;;;;25.40;47.46;100260.75;4396276;32;20023;-78
2022/07/02 06:34:30;;;;;;;;;;;;;;;25.56;47.04;100254.81;4401990;32;20049;-78
2022/07/02 06:36:58;;;;;;;;;;;;;;;25.67;46.93;100257.94;4402812;32;19993;-78
2022/07/02 06:39:25;;;;;;;;;;;;;;;25.83;46.52;100259.06;4399787;32;19982;-78
2022/07/02 06:44:38;;;;;;;;;;;;;;;26.16;45.98;100261.25;4403955;32;20366;-78
2022/07/02 06:47:05;;;;;;;;;;;;;;;26.35;45.65;100272.84;4407628;32;20029;-77
2022/07/02 06:49:32;;;;;;;;;;;;;;;26.37;45.48;100268.34;4388735;32;20028;-78
2022/07/02 06:52:01;;;;;;;;;;;;;;;26.61;44.78;100273.53;4406617;32;20598;-78
2022/07/02 06:54:28;;;;;;;;;;;;;;;26.66;44.59;100260.94;4403391;32;19986;-78
2022/07/02 06:56:55;;;;;;;;;;;;;;;26.95;44.23;100267.63;4410887;32;19989;-78
2022/07/02 06:59:22;;;;;;;;;;;;;;;26.95;44.42;100278.25;4389964;32;20022;-78
2022/07/02 07:01:49;;;;;;;;;;;;;;;27.31;42.62;100278.44;4400856;32;20004;-79
2022/07/02 07:04:36;;;;;;;;;;;;;;;27.49;43.15;100268.72;4400808;32;20336;-82
2022/07/02 07:07:05;;;;;;;;;;;;;;;27.55;42.66;100278.19;4376590;32;20036;-81
2022/07/02 07:09:34;;;;;;;;;;;;;;;27.69;42.53;100281.06;4405359;32;19998;-82
2022/07/02 07:12:04;;;;;;;;;;;;;;;27.83;42.12;100287.56;4409922;32;20009;-81
2022/07/02 07:14:31;;;;;;;;;;;;;;;27.95;42.10;100278.97;4418145;32;20359;-81
2022/07/02 07:16:58;;;;;;;;;;;;;;;28.46;41.25;100282.66;4423842;32;20312;-82
2022/07/02 07:19:25;;;;;;;;;;;;;;;28.61;40.07;100292.53;4419978;32;20357;-82
2022/07/02 07:21:52;;;;;;;;;;;;;;;28.52;40.40;100285.00;4431076;32;20004;-82
2022/07/02 07:24:19;;;;;;;;;;;;;;;28.60;39.35;100288.16;4429616;32;20012;-82
2022/07/02 07:26:46;;;;;;;;;;;;;;;28.20;40.97;100290.12;4435485;32;19982;-82
2022/07/02 07:29:13;;;;;;;;;;;;;;;28.53;40.45;100305.41;4419870;32;19982;-81
2022/07/02 07:31:41;;;;;;;;;;;;;;;28.63;39.86;100306.66;4429750;32;20024;-81
2022/07/02 07:34:09;;;;;;;;;;;;;;;28.64;40.08;100303.03;4394202;32;20389;-82
2022/07/02 07:36:36;;;;;;;;;;;;;;;28.80;39.38;100302.25;4404981;32;19998;-83
2022/07/02 07:39:03;;;;;;;;;;;;;;;29.03;39.06;100299.25;4389702;32;20022;-81
2022/07/02 07:41:31;;;;;;;;;;;;;;;29.01;39.60;100322.47;4386890;32;20039;-82
2022/07/02 07:43:58;;;;;;;;;;;;;;;29.39;37.81;100298.22;4401213;32;20057;-82
2022/07/02 07:46:24;;;;;;;;;;;;;;;28.92;39.27;100296.28;4404590;32;19974;-81
2022/07/02 07:48:52;;;;;;;;;;;;;;;29.28;38.71;100293.47;4417914;32;19996;-81
2022/07/02 07:51:18;;;;;;;;;;;;;;;29.37;38.35;100302.78;4419259;32;19982;-81
2022/07/02 07:53:45;;;;;;;;;;;;;;;29.37;39.66;100308.13;4416496;32;20016;-83
2022/07/02 07:56:18;;;;;;;;;;;;;;;29.63;37.47;100309.38;4423230;32;19974;-82
2022/07/02 07:58:46;;;;;;;;;;;;;;;29.20;38.31;100307.22;4401708;32;19993;-81
2022/07/02 08:01:13;;;;;;;;;;;;;;;29.08;38.73;100299.88;4401870;32;20805;-81
2022/07/02 08:03:40;;;;;;;;;;;;;;;29.43;38.20;100313.12;4401852;32;20009;-81
2022/07/02 08:06:07;;;;;;;;;;;;;;;29.63;37.96;100304.03;4405594;32;20376;-81
2022/07/02 08:08:34;;;;;;;;;;;;;;;29.75;38.72;100319.38;4405388;32;19997;-81
2022/07/02 08:11:01;;;;;;;;;;;;;;;30.25;36.35;100312.09;4421184;32;19989;-81
2022/07/02 08:13:28;;;;;;;;;;;;;;;30.08;36.25;100311.25;4415380;32;19985;-81
2022/07/02 08:15:55;;;;;;;;;;;;;;;29.52;37.95;100301.94;4415543;32;20041;-81
2022/07/02 08:18:22;;;;;;;;;;;;;;;29.64;38.02;100301.31;4418115;32;20365;-81
2022/07/02 08:20:49;;;;;;;;;;;;;;;29.82;37.29;100303.88;4405905;32;20069;-81
2022/07/02 08:23:15;;;;;;;;;;;;;;;29.50;38.96;100303.81;4419937;32;19986;-81
2022/07/02 08:25:43;;;;;;;;;;;;;;;29.85;37.19;100303.69;4414349;32;19978;-81
2022/07/02 08:28:09;;;;;;;;;;;;;;;29.79;37.32;100296.03;4408691;32;20428;-81
2022/07/02 08:30:36;;;;;;;;;;;;;;;29.95;37.15;100304.03;4419704;32;20048;-81
2022/07/02 08:33:03;;;;;;;;;;;;;;;30.09;36.41;100294.28;4420470;32;19985;-81
2022/07/02 08:35:30;;;;;;;;;;;;;;;29.95;37.16;100302.22;4411539;32;20008;-81
2022/07/02 08:37:57;;;;;;;;;;;;;;;30.18;35.96;100300.03;4422317;32;19973;-81
2022/07/02 08:40:25;;;;;;;;;;;;;;;30.13;36.39;100301.16;4416954;32;19981;-81
2022/07/02 08:42:52;;;;;;;;;;;;;;;30.15;36.33;100302.88;4429086;32;19982;-81
2022/07/02 08:45:21;;;;;;;;;;;;;;;30.21;36.68;100299.88;4415351;32;19970;-81
2022/07/02 08:47:48;;;;;;;;;;;;;;;30.44;36.07;100302.09;4412449;32;19986;-81
2022/07/02 08:50:15;;;;;;;;;;;;;;;30.23;36.99;100292.66;4433493;32;20037;-81
2022/07/02 08:52:41;;;;;;;;;;;;;;;30.43;37.41;100300.34;4415921;32;19973;-81
2022/07/02 08:55:11;;;;;;;;;;;;;;;30.67;35.38;100302.53;4416514;32;20251;-81
2022/07/02 08:57:38;;;;;;;;;;;;;;;30.37;37.34;100295.38;4416291;32;20039;-81
2022/07/02 09:00:05;;;;;;;;;;;;;;;30.66;35.67;100306.13;4429699;32;20398;-81
2022/07/02 09:02:32;;;;;;;;;;;;;;;30.73;36.12;100292.31;4416666;32;19989;-81
2022/07/02 09:04:59;;;;;;;;;;;;;;;30.88;35.65;100301.25;4416447;32;20345;-81
2022/07/02 09:07:26;;;;;;;;;;;;;;;31.01;34.92;100299.53;4412272;32;20324;-81
2022/07/02 09:09:53;;;;;;;;;;;;;;;31.26;35.49;100295.34;4432022;32;19989;-81
2022/07/02 09:12:23;;;;;;;;;;;;;;;31.39;35.83;100299.00;4430264;32;20060;-81
2022/07/02 09:14:53;;;;;;;;;;;;;;;31.54;34.85;100293.63;4426270;32;20326;-81
2022/07/02 09:17:20;;;;;;;;;;;;;;;31.35;34.96;100297.47;4419979;32;20004;-81
2022/07/02 09:19:47;;;;;;;;;;;;;;;31.46;34.11;100291.44;4405025;32;20012;-81
2022/07/02 09:22:14;;;;;;;;;;;;;;;31.32;33.81;100288.75;4420619;32;20725;-81
2022/07/02 09:24:42;;;;;;;;;;;;;;;31.43;34.38;100287.16;4416993;32;20267;-81
2022/07/02 09:27:13;;;;;;;;;;;;;;;31.75;33.22;100281.56;4416818;32;20312;-81
2022/07/02 09:29:40;;;;;;;;;;;;;;;31.45;35.20;100279.00;4416401;32;20365;-81
2022/07/02 09:32:07;;;;;;;;;;;;;;;31.74;33.45;100279.81;4408659;32;20374;-81
2022/07/02 09:34:34;;;;;;;;;;;;;;;31.48;34.99;100285.03;4422532;32;19989;-81
2022/07/02 09:37:10;;;;;;;;;;;;;;;31.86;33.42;100284.37;4415525;32;20334;-81
2022/07/02 09:39:37;;;;;;;;;;;;;;;32.02;33.00;100278.03;4419198;32;19989;-81
2022/07/02 09:42:04;;;;;;;;;;;;;;;31.91;33.26;100287.66;4414975;32;20032;-81
2022/07/02 09:44:31;;;;;;;;;;;;;;;32.04;32.96;100282.34;4416074;32;20359;-81
2022/07/02 09:46:58;;;;;;;;;;;;;;;31.75;34.04;100286.91;4409435;32;19997;-81
2022/07/02 09:49:27;;;;;;;;;;;;;;;32.05;33.34;100288.56;4427951;32;19986;-81
2022/07/02 09:51:54;;;;;;;;;;;;;;;31.97;33.26;100286.34;4419735;32;19977;-81
2022/07/02 09:54:22;;;;;;;;;;;;;;;32.34;32.99;100295.50;4417405;32;19989;-81
2022/07/02 09:56:54;;;;;;;;;;;;;;;32.11;33.20;100293.50;4409903;32;19996;-81
2022/07/02 09:59:21;;;;;;;;;;;;;;;32.20;33.07;100287.53;4443086;32;20375;-81
2022/07/02 10:01:48;;;;;;;;;;;;;;;31.93;35.15;100291.06;4426391;32;19997;-81
2022/07/02 10:04:15;;;;;;;;;;;;;;;31.93;34.78;100293.75;4433808;32;19977;-82
2022/07/02 10:06:42;;;;;;;;;;;;;;;31.87;34.63;100296.78;4420937;32;19994;-81
2022/07/02 10:09:11;;;;;;;;;;;;;;;31.99;32.99;100283.59;4419081;32;19994;-81
2022/07/02 10:11:38;;;;;;;;;;;;;;;32.25;33.05;100290.75;4414896;32;19978;-81
2022/07/02 10:14:05;;;;;;;;;;;;;;;32.34;32.24;100290.12;4413614;32;19978;-81
2022/07/02 10:16:31;;;;;;;;;;;;;;;32.20;32.92;100282.19;4416096;32;20006;-81
2022/07/02 10:18:59;;;;;;;;;;;;;;;32.36;32.14;100290.03;4416535;32;20008;-81
2022/07/02 10:21:26;;;;;;;;;;;;;;;32.38;31.65;100286.28;4435008;32;20489;-81
2022/07/02 10:23:53;;;;;;;;;;;;;;;32.06;32.49;100280.41;4414485;32;19993;-82
2022/07/02 10:26:20;;;;;;;;;;;;;;;32.10;32.17;100281.06;4414418;32;20023;-81
2022/07/02 10:28:46;;;;;;;;;;;;;;;32.06;33.24;100284.91;4413831;32;19985;-81
2022/07/02 10:31:20;;;;;;;;;;;;;;;31.95;35.08;100283.81;4420282;32;20053;-81
2022/07/02 10:33:54;;;;;;;;;;;;;;;32.22;32.73;100280.22;4425362;32;19999;-82
2022/07/02 10:36:21;;;;;;;;;;;;;;;31.98;33.50;100281.88;4411646;32;20257;-81
2022/07/02 10:38:56;;;;;;;;;;;;;;;32.66;31.87;100279.06;4406713;32;20981;-81
2022/07/02 10:41:26;;;;;;;;;;;;;;;32.71;31.31;100282.31;4422036;32;20000;-81
2022/07/02 10:43:56;;;;;;;;;;;;;;;32.46;32.45;100284.94;4414866;32;19973;-82
2022/07/02 10:46:25;;;;;;;;;;;;;;;32.69;31.67;100284.22;4415716;32;19989;-82
2022/07/02 10:48:57;;;;;;;;;;;;;;;32.84;31.72;100283.16;4418836;32;20004;-81
2022/07/02 10:51:26;;;;;;;;;;;;;;;32.91;30.81;100272.00;4411308;32;20000;-81
2022/07/02 10:53:55;;;;;;;;;;;;;;;32.80;30.36;100279.00;4404877;32;20005;-81
2022/07/02 10:56:23;;;;;;;;;;;;;;;32.52;31.78;100268.44;4432660;32;19996;-81
2022/07/02 10:58:50;;;;;;;;;;;;;;;32.58;31.54;100271.56;4431066;32;20326;-81
2022/07/02 11:01:18;;;;;;;;;;;;;;;32.79;32.08;100279.94;4430577;32;19969;-81
2022/07/02 11:03:58;;;;;;;;;;;;;;;32.99;30.48;100269.66;4430836;32;19995;-82
2022/07/02 11:06:25;;;;;;;;;;;;;;;33.07;32.32;100269.97;4425658;32;19978;-81
2022/07/02 11:08:56;;;;;;;;;;;;;;;32.92;30.01;100265.66;4430353;32;19992;-81
2022/07/02 11:11:30;;;;;;;;;;;;;;;32.65;32.37;100269.31;4415419;32;19986;-81
2022/07/02 11:14:00;;;;;;;;;;;;;;;32.64;31.63;100265.78;4420418;32;20024;-82
2022/07/02 11:16:41;;;;;;;;;;;;;;;32.92;31.06;100262.97;4430470;32;20004;-81
2022/07/02 11:19:27;;;;;;;;;;;;;;;32.70;31.01;100264.47;4441941;32;20425;-82
2022/07/02 11:21:58;;;;;;;;;;;;;;;32.62;32.19;100261.47;4431800;32;20683;-81
2022/07/02 11:24:26;;;;;;;;;;;;;;;32.89;30.56;100264.06;4432231;32;19988;-81
2022/07/02 11:26:53;;;;;;;;;;;;;;;32.96;30.29;100253.75;4432537;32;19969;-81
2022/07/02 11:29:20;;;;;;;;;;;;;;;33.04;30.12;100262.16;4428897;32;20052;-81
2022/07/02 11:31:48;;;;;;;;;;;;;;;33.12;29.86;100254.41;4424758;32;20314;-81
2022/07/02 11:34:22;;;;;;;;;;;;;;;32.92;30.08;100252.25;4421818;32;19988;-81
2022/07/02 11:36:49;;;;;;;;;;;;;;;32.97;29.56;100260.87;4418771;32;19996;-81
2022/07/02 11:39:19;;;;;;;;;;;;;;;32.72;31.16;100259.88;4424143;32;19970;-81
2022/07/02 11:41:46;;;;;;;;;;;;;;;32.74;30.89;100247.22;4415472;32;19974;-81
2022/07/02 11:44:20;;;;;;;;;;;;;;;33.01;30.12;100246.28;4425433;32;21087;-81
2022/07/02 11:46:54;;;;;;;;;;;;;;;32.97;30.82;100250.16;4430502;32;20053;-81
2022/07/02 11:49:22;;;;;;;;;;;;;;;33.03;30.92;100247.03;4423917;32;20302;-80
2022/07/02 11:51:50;;;;;;;;;;;;;;;33.22;29.23;100243.91;4415586;32;20002;-81
2022/07/02 11:54:17;;;;;;;;;;;;;;;32.91;30.08;100255.91;4392013;32;785125;-81
2022/07/02 11:56:45;;;;;;;;;;;;;;;32.73;30.81;100242.81;4416893;32;19982;-81
2022/07/02 11:59:19;;;;;;;;;;;;;;;33.02;30.74;100238.09;4417038;32;19985;-81
2022/07/02 12:01:47;;;;;;;;;;;;;;;33.30;29.73;100236.97;4415224;32;20775;-81
2022/07/02 12:04:18;;;;;;;;;;;;;;;33.16;31.44;100239.81;4436770;32;19988;-81
2022/07/02 12:06:50;;;;;;;;;;;;;;;33.42;29.33;100234.41;4443231;32;20000;-81
2022/07/02 12:09:18;;;;;;;;;;;;;;;33.26;30.32;100230.13;4432326;32;20012;-81
2022/07/02 12:11:47;;;;;;;;;;;;;;;33.52;28.80;100230.09;4427345;32;19996;-81
2022/07/02 12:14:14;;;;;;;;;;;;;;;33.19;29.44;100231.56;4421097;32;20080;-81
2022/07/02 12:16:43;;;;;;;;;;;;;;;33.40;29.83;100230.94;4410913;32;20042;-81
2022/07/02 12:19:14;;;;;;;;;;;;;;;33.46;29.19;100226.00;4440169;32;20042;-81
2022/07/02 12:21:45;;;;;;;;;;;;;;;33.22;30.95;100234.00;4425302;32;20023;-81
2022/07/02 12:24:21;;;;;;;;;;;;;;;33.57;28.99;100230.63;4443453;32;20401;-81
2022/07/02 12:26:49;;;;;;;;;;;;;;;33.32;29.96;100228.84;4432014;32;19981;-81
2022/07/02 12:32:06;;;;;;;;;;;;;;;33.32;29.76;100229.69;4423690;32;19977;-81
2022/07/02 12:34:45;;;;;;;;;;;;;;;33.47;30.22;100221.47;4418837;32;20035;-81
2022/07/02 12:37:29;;;;;;;;;;;;;;;33.61;29.60;100224.03;4423747;32;19977;-81
2022/07/02 12:39:58;;;;;;;;;;;;;;;33.78;28.50;100220.09;4412546;32;19990;-81
2022/07/02 12:42:25;;;;;;;;;;;;;;;33.82;28.60;100220.72;4416320;32;20744;-81
2022/07/02 12:44:58;;;;;;;;;;;;;;;33.82;29.03;100207.28;4435148;32;20045;-81
2022/07/02 12:47:26;;;;;;;;;;;;;;;33.63;29.01;100205.12;4415758;32;19994;-81
2022/07/02 12:50:00;;;;;;;;;;;;;;;32.99;31.66;100213.31;4417047;32;19994;-81